Flight Track Log - Related Links

Times and Time Zones

All times are in EDT time to prevent confusion due to time zone crossing. See the SWA1245 flight status page for this flight to view local times or setup timezone preferences in your user account.

Time Position Orientation Groundspeed Altitude Reporting Facility
EDT Latitude Longitude Course Direction KTS MPH feet Rate Location/Type
Sat 09:28:41 PM 39.1667 -76.6333 119° Southeast 166 191 1,800  Level Potomac TRACON
Sat 09:30:55 PM 39.1017 -76.4850 119° Southeast 228 262 6,600 2,602 Climbing Washington Center
Sat 09:31:57 PM 39.0481 -76.4042 130° Southeast 267 307 10,300 2,975 Climbing Washington Center
Sat 09:32:54 PM 39.0300 -76.2917 102° East 297 342 12,500 2,746 Climbing Washington Center
Sat 09:33:55 PM 39.0392 -76.1636 85° East 310 357 15,700 2,678 Climbing Washington Center
Sat 09:34:55 PM 39.0458 -76.0272 86° East 349 402 17,900 2,628 Climbing Washington Center
Sat 09:35:56 PM 39.0547 -75.8856 85° East 373 429 21,000 2,488 Climbing Washington Center
Sat 09:36:58 PM 39.0569 -75.7467 89° East 387 445 23,000 1,000 Climbing Washington Center
Sat 09:37:56 PM 39.0656 -75.6075 85° East 387 445 23,000  Level Washington Center
Sat 09:38:56 PM 39.0694 -75.4686 88° East 387 445 23,000  Level Washington Center
Sat 09:39:55 PM 39.0756 -75.3294 87° East 387 445 23,000  Level Washington Center
Sat 09:40:55 PM 39.0814 -75.1906 87° East 382 440 23,000  Level Washington Center
Sat 09:41:56 PM 39.0892 -75.0514 86° East 382 440 23,000  Level Washington Center
Sat 09:42:57 PM 39.0925 -74.9097 88° East 388 447 23,000  Level Washington Center
Sat 09:43:55 PM 39.1106 -74.7758 80° East 382 440 23,000  Level Washington Center
Sat 09:44:56 PM 39.1806 -74.6706 49° Northeast 362 417 23,000  Level Washington Center
Sat 09:46:44 PM 39.3047 -74.4814 50° Northeast 377 434 23,000  Level New York Center
Sat 09:47:42 PM 39.3725 -74.3775 50° Northeast 382 440 23,000 -51 Level New York Center
Sat 09:48:42 PM 39.4428 -74.2683 50° Northeast 387 445 22,900 -443 Descending New York Center
Sat 09:49:44 PM 39.5061 -74.1692 50° Northeast 380 437 22,100 -1,122 Descending New York Center
Sat 09:50:45 PM 39.5694 -74.0697 50° Northeast 367 422 20,600 -1,385 Descending New York Center
Sat 09:51:28 PM 39.6169 -73.9925 51° Northeast 360 414 19,700 -1,143 Descending Boston Center
Sat 09:52:30 PM 39.6806 -73.8919 51° Northeast 362 417 18,600 -984 Descending Boston Center
Sat 09:53:30 PM 39.7428 -73.7950 50° Northeast 355 409 17,700 -1,100 Descending Boston Center
Sat 09:54:30 PM 39.8025 -73.6989 51° Northeast 345 397 16,400 -1,350 Descending Boston Center
Sat 09:55:30 PM 39.8631 -73.6061 50° Northeast 339 390 15,000 -1,289 Descending Boston Center
Sat 09:56:31 PM 39.9403 -73.5106 43° Northeast 331 381 13,800 -1,082 Descending Boston Center
Sat 09:57:32 PM 40.0053 -73.4306 43° Northeast 327 376 12,800 -968 Descending Boston Center
Sat 09:58:35 PM 40.0708 -73.3514 43° Northeast 324 373 11,800 -968 Descending Boston Center
Sat 09:59:36 PM 40.1356 -73.2739 42° Northeast 320 368 10,800 -992 Descending Boston Center
Sat 10:00:36 PM 40.1956 -73.2003 43° Northeast 299 344 9,800 -893 Descending Boston Center
Sat 10:01:37 PM 40.2528 -73.1322 42° Northeast 281 323 9,000 -393 Descending Boston Center
Sat 10:02:38 PM 40.3072 -73.0656 43° Northeast 271 312 9,000  Level Boston Center
Sat 10:03:39 PM 40.3614 -72.9986 43° Northeast 268 308 9,000 -738 Level Boston Center
Sat 10:04:40 PM 40.4311 -72.9700 17° North 264 304 7,500 -1,210 Descending Boston Center
Sat 10:05:38 PM 40.5017 -72.9494 12° North 261 300 6,600 -1,131 Descending Boston Center
Sat 10:06:42 PM 40.5753 -72.9553 357° North 261 300 5,200 -1,296 Descending Boston Center
Sat 10:07:43 PM 40.6483 -72.9594 358° North 261 300 3,900 -1,339 Descending Boston Center
Sat 10:08:43 PM 40.7217 -72.9600 360° North 262 302 2,500 -992 Descending Boston Center
Sat 10:09:44 PM 40.8067 -72.9594 360° North 256 295 1,900 -700 Descending Boston Center
Sat 10:10:43 PM 40.8544 -72.9992 328° Northwest 219 252 1,100 -350 Descending Boston Center
Sat 10:11:44 PM 40.8433 -73.0417 251° West 159 183 1,200 -295 Climbing Boston Center
Sat 10:12:45 PM 40.8175 -73.0744 224° Southwest 137 158 500 -492 Descending Boston Center
Sat 10:13:46 PM 40.7925 -73.1075 225° Southwest 136 157 200 -295 Descending Boston Center
Sat 10:15:00 PM 40.7833 -73.1000 North  Level FlightAware Approximate

Login

Don't have an account? Register now (free) for customized features, flight alerts, and more!